KLOR/LOR METAR and TAF weather

Enter ICAO airport designator
Station Type Date Time Source
KLOR METAR 2020/06/06 20:58 UTC NOAA

KLOR 062058Z AUTO 10006KT 10SM SCT020 BKN060 BKN070 25/21 A2995 RMK AO2 SLP123 T02480212 57011


Station Type Date Time Source
KLOR Decoded METAR 2020/06/06 20:58 UTC NOAA

Fort Rucker, Lowe Army Heliport, AL, United States (KLOR) 31-21-32N 085-44-54W 93M
Jun 06, 2020 - 04:58 PM EDT / 2020.06.06 2058 UTC
Wind: from the E (100 degrees) at 7 MPH (6 KT):0
Visibility: 10 mile(s):0
Sky conditions: mostly cloudy
Temperature: 76.6 F (24.8 C)
Dew Point: 70.2 F (21.2 C)
Relative Humidity: 80%
Pressure (altimeter): 29.95 in. Hg (1014 hPa)
Pressure tendency: 0.03 inches (1.1 hPa) lower than three hours ago
ob: KLOR 062058Z AUTO 10006KT 10SM SCT020 BKN060 BKN070 25/21 A2995 RMK AO2 SLP123 T02480212 57011
cycle: 21

Station Type Date Time Source
KLOR TAF UTC NOAA

Error!

Example: see airport list